Time;durP1;ratioP1;P1;durP2;ratioP2;P2;SDS_P1;SDS_P2;PMS_P1;PMS_P2;Temp;Humidity;BMP_temperature;BMP_pressure;BME280_temperature;BME280_humidity;BME280_pressure;Samples;Min_cycle;Max_cycle;Signal;HPM_P1;HPM_P2
2023/12/16 00:02:14;;;;;;;33.80;16.30;;;6.50;99.90;;;;;;5185508;28;20754;-49
2023/12/16 00:04:45;;;;;;;49.57;16.67;;;6.60;99.90;;;;;;5185696;28;20191;-46
2023/12/16 00:07:15;;;;;;;28.53;14.73;;;6.60;99.90;;;;;;5184530;28;20688;-47
2023/12/16 00:09:46;;;;;;;32.63;15.00;;;6.50;99.90;;;;;;5185354;28;20197;-46
2023/12/16 00:12:17;;;;;;;41.83;13.30;;;6.50;99.90;;;;;;5183650;28;20219;-46
2023/12/16 00:14:48;;;;;;;43.70;14.20;;;6.50;99.90;;;;;;5184941;28;20991;-47
2023/12/16 00:17:18;;;;;;;35.60;15.77;;;6.50;99.90;;;;;;5184245;28;20219;-47
2023/12/16 00:19:49;;;;;;;28.07;13.57;;;6.50;99.90;;;;;;5184276;28;20242;-48
2023/12/16 00:22:20;;;;;;;31.90;14.70;;;6.50;99.90;;;;;;5187551;28;20185;-48
2023/12/16 00:24:50;;;;;;;49.70;19.47;;;6.60;99.90;;;;;;5200497;28;20592;-45
2023/12/16 00:27:21;;;;;;;46.13;18.33;;;6.60;99.90;;;;;;5187036;28;20262;-47
2023/12/16 00:29:52;;;;;;;47.97;15.63;;;6.60;99.90;;;;;;5188889;28;20196;-47
2023/12/16 00:32:22;;;;;;;40.93;15.13;;;6.50;99.90;;;;;;5185564;28;20188;-46
2023/12/16 00:34:53;;;;;;;41.37;15.50;;;6.50;99.90;;;;;;5186666;28;20215;-46
2023/12/16 00:37:24;;;;;;;53.37;15.70;;;6.60;99.90;;;;;;5187283;28;20212;-49
2023/12/16 00:39:54;;;;;;;48.33;15.67;;;6.50;99.90;;;;;;5187574;28;20184;-45
2023/12/16 00:42:25;;;;;;;52.27;15.47;;;6.60;99.90;;;;;;5184439;28;20184;-48
2023/12/16 00:44:57;;;;;;;31.43;15.87;;;6.60;99.90;;;;;;5186409;28;20695;-47
2023/12/16 00:47:28;;;;;;;37.53;15.47;;;6.50;99.90;;;;;;5180497;28;20345;-48
2023/12/16 00:49:59;;;;;;;34.60;14.80;;;6.60;99.90;;;;;;5184169;28;20466;-46
2023/12/16 00:52:29;;;;;;;39.73;15.63;;;6.60;99.90;;;;;;5185465;28;20518;-46
2023/12/16 00:55:00;;;;;;;43.13;15.07;;;6.60;99.90;;;;;;5187992;28;20284;-46
2023/12/16 00:57:31;;;;;;;49.50;16.70;;;6.60;99.90;;;;;;5190243;28;20292;-47
2023/12/16 01:00:01;;;;;;;46.80;16.70;;;6.60;99.90;;;;;;5188979;28;20235;-46
2023/12/16 01:02:32;;;;;;;56.47;17.87;;;6.60;99.90;;;;;;5185988;28;20195;-47
2023/12/16 01:05:03;;;;;;;34.20;16.03;;;6.50;99.90;;;;;;5186676;28;20184;-47
2023/12/16 01:07:34;;;;;;;42.27;16.43;;;6.60;99.90;;;;;;5188778;28;20200;-48
2023/12/16 01:10:05;;;;;;;29.93;14.00;;;6.60;99.90;;;;;;5199691;28;20470;-47
2023/12/16 01:12:35;;;;;;;38.93;15.00;;;6.50;99.90;;;;;;5190279;28;20668;-47
2023/12/16 01:15:07;;;;;;;42.97;15.20;;;6.60;99.90;;;;;;5182623;28;20471;-49
2023/12/16 01:17:37;;;;;;;45.13;16.80;;;6.50;99.90;;;;;;5183485;28;20287;-48
2023/12/16 01:20:08;;;;;;;36.10;14.70;;;6.50;99.90;;;;;;5188276;28;20860;-47
2023/12/16 01:22:39;;;;;;;40.87;15.83;;;6.50;99.90;;;;;;5187166;28;20177;-46
2023/12/16 01:25:10;;;;;;;53.53;16.50;;;6.50;99.90;;;;;;5187263;28;20442;-46
2023/12/16 01:27:42;;;;;;;59.07;18.80;;;6.50;99.90;;;;;;5185980;28;20207;-50
2023/12/16 01:30:13;;;;;;;36.97;15.70;;;6.50;99.90;;;;;;5181284;28;20204;-50
2023/12/16 01:32:43;;;;;;;40.70;16.20;;;6.50;99.90;;;;;;5199101;28;20494;-50
2023/12/16 01:35:14;;;;;;;36.23;15.80;;;6.40;99.90;;;;;;5164470;28;20211;-49
2023/12/16 01:37:45;;;;;;;30.90;15.07;;;6.50;99.90;;;;;;5178750;28;20202;-50
2023/12/16 01:40:15;;;;;;;45.43;18.03;;;6.50;99.90;;;;;;5186584;28;20513;-49
2023/12/16 01:42:46;;;;;;;28.53;14.03;;;6.40;99.90;;;;;;5182331;28;20173;-50
2023/12/16 01:45:18;;;;;;;41.00;15.47;;;6.50;99.90;;;;;;5183223;28;20227;-49
2023/12/16 01:47:49;;;;;;;41.83;16.03;;;6.40;99.90;;;;;;5182109;28;20204;-50
2023/12/16 01:50:20;;;;;;;37.53;15.30;;;6.50;99.90;;;;;;5182199;28;20449;-51
2023/12/16 01:52:52;;;;;;;57.47;15.67;;;6.50;99.90;;;;;;5181766;28;20828;-49
2023/12/16 01:55:23;;;;;;;37.67;12.37;;;6.50;99.90;;;;;;5178528;28;20463;-49
2023/12/16 01:57:55;;;;;;;32.63;15.57;;;6.50;99.90;;;;;;5176989;28;20525;-49
2023/12/16 02:00:29;;;;;;;53.47;13.70;;;6.50;99.90;;;;;;5182834;28;20180;-49
2023/12/16 02:03:00;;;;;;;44.90;15.77;;;6.50;99.90;;;;;;5185140;28;20485;-49
2023/12/16 02:05:31;;;;;;;46.57;16.00;;;6.60;99.90;;;;;;5184274;28;20843;-51
2023/12/16 02:08:02;;;;;;;45.83;16.50;;;6.60;99.90;;;;;;5180213;28;20487;-48
2023/12/16 02:10:32;;;;;;;29.93;13.40;;;6.60;99.90;;;;;;5182879;28;20184;-49
2023/12/16 02:13:04;;;;;;;38.30;15.30;;;6.60;99.90;;;;;;5180528;28;20235;-50
2023/12/16 02:15:35;;;;;;;42.87;14.67;;;6.60;99.90;;;;;;5181004;28;20691;-50
2023/12/16 02:18:05;;;;;;;32.80;14.17;;;6.60;99.90;;;;;;5181079;28;20439;-49
2023/12/16 02:20:36;;;;;;;32.97;14.30;;;6.60;99.90;;;;;;5179374;28;20646;-50
2023/12/16 02:23:17;;;;;;;39.50;15.17;;;6.60;99.90;;;;;;5183387;28;20691;-50
2023/12/16 02:25:47;;;;;;;38.53;13.90;;;6.60;99.90;;;;;;5177117;28;20656;-50
2023/12/16 02:28:18;;;;;;;38.17;14.20;;;6.60;99.90;;;;;;5186976;28;20459;-50
2023/12/16 02:30:49;;;;;;;40.67;13.47;;;6.60;99.90;;;;;;5177853;28;20715;-50
2023/12/16 02:33:20;;;;;;;31.17;13.80;;;6.60;99.90;;;;;;5194888;28;20737;-50
2023/12/16 02:35:50;;;;;;;35.13;13.90;;;6.60;99.90;;;;;;5183859;28;20204;-49
2023/12/16 02:38:21;;;;;;;33.93;14.00;;;6.60;99.90;;;;;;5166383;28;20447;-49
2023/12/16 02:40:52;;;;;;;36.93;13.20;;;6.60;99.90;;;;;;5178687;28;20183;-48
2023/12/16 02:43:22;;;;;;;27.50;13.50;;;6.50;99.90;;;;;;5194547;28;20309;-50
2023/12/16 02:45:53;;;;;;;30.40;13.10;;;6.50;99.90;;;;;;5182045;28;20581;-50
2023/12/16 02:48:24;;;;;;;39.17;14.23;;;6.60;99.90;;;;;;5185465;28;20200;-50
2023/12/16 02:50:54;;;;;;;35.43;14.37;;;6.60;99.90;;;;;;5184101;28;20208;-51
2023/12/16 02:53:25;;;;;;;43.13;14.80;;;6.60;99.90;;;;;;5183037;28;20204;-50
2023/12/16 02:55:56;;;;;;;27.30;13.03;;;6.60;99.90;;;;;;5181290;28;20200;-50
2023/12/16 02:58:26;;;;;;;45.60;14.63;;;6.60;99.90;;;;;;5183180;28;20979;-50
2023/12/16 03:00:59;;;;;;;47.47;13.83;;;6.50;99.90;;;;;;5180300;28;20181;-49
2023/12/16 03:03:29;;;;;;;38.50;14.90;;;6.50;99.90;;;;;;5184845;28;20712;-50
2023/12/16 03:06:05;;;;;;;36.20;12.90;;;6.50;99.90;;;;;;5183500;28;20534;-49
2023/12/16 03:08:36;;;;;;;26.87;13.30;;;6.50;99.90;;;;;;5178642;28;20299;-49
2023/12/16 03:11:06;;;;;;;32.53;14.20;;;6.50;99.90;;;;;;5186003;28;20480;-49
2023/12/16 03:13:37;;;;;;;24.90;12.40;;;6.40;99.90;;;;;;5179919;28;20436;-48
2023/12/16 03:16:09;;;;;;;28.60;12.87;;;6.50;99.90;;;;;;5176398;28;20191;-50
2023/12/16 03:18:40;;;;;;;47.60;14.40;;;6.40;99.90;;;;;;5181856;28;20211;-49
2023/12/16 03:21:11;;;;;;;26.83;13.40;;;6.40;99.90;;;;;;5186205;28;20462;-49
2023/12/16 03:23:41;;;;;;;37.83;15.30;;;6.40;99.90;;;;;;5186435;28;20648;-49
2023/12/16 03:26:12;;;;;;;32.63;15.13;;;6.50;99.90;;;;;;5179730;28;20184;-49
2023/12/16 03:28:42;;;;;;;28.53;13.70;;;6.40;99.90;;;;;;5186250;28;20200;-48
2023/12/16 03:31:13;;;;;;;36.80;15.33;;;6.40;99.90;;;;;;5182010;28;20230;-49
2023/12/16 03:33:44;;;;;;;35.30;15.47;;;6.40;99.90;;;;;;5197810;28;20346;-48
2023/12/16 03:36:14;;;;;;;41.67;15.77;;;6.50;99.90;;;;;;5189797;28;20172;-48
2023/12/16 03:38:46;;;;;;;41.57;15.33;;;6.50;99.90;;;;;;5188290;28;20204;-49
2023/12/16 03:41:16;;;;;;;44.33;16.07;;;6.50;99.90;;;;;;5187475;28;20173;-48
2023/12/16 03:43:47;;;;;;;34.00;15.23;;;6.60;99.90;;;;;;5170684;28;20935;-48
2023/12/16 03:46:18;;;;;;;39.67;15.53;;;6.60;99.90;;;;;;5186125;28;20216;-48
2023/12/16 03:48:49;;;;;;;44.10;16.83;;;6.60;99.90;;;;;;5170719;28;20677;-48
2023/12/16 03:51:23;;;;;;;47.03;16.17;;;6.70;99.90;;;;;;5187597;28;20172;-49
2023/12/16 03:53:54;;;;;;;50.17;17.80;;;6.70;99.90;;;;;;5184564;28;20442;-50
2023/12/16 03:56:24;;;;;;;38.53;16.43;;;6.70;99.90;;;;;;5186016;28;20443;-49
2023/12/16 03:58:55;;;;;;;34.07;16.93;;;6.70;99.90;;;;;;5182066;28;20196;-49
2023/12/16 04:01:25;;;;;;;41.67;16.33;;;6.70;99.90;;;;;;5182193;28;20180;-49
2023/12/16 04:03:56;;;;;;;38.33;16.33;;;6.60;99.90;;;;;;5166507;28;20185;-49
2023/12/16 04:06:27;;;;;;;45.53;16.60;;;6.60;99.90;;;;;;5186513;28;20188;-50
2023/12/16 04:08:57;;;;;;;52.80;20.43;;;6.60;99.90;;;;;;5185628;28;20200;-50
2023/12/16 04:11:28;;;;;;;41.13;16.80;;;6.70;99.90;;;;;;5178022;28;20184;-49
2023/12/16 04:13:58;;;;;;;44.97;19.20;;;6.70;99.90;;;;;;5188571;28;20216;-50
2023/12/16 04:16:29;;;;;;;51.07;18.63;;;6.70;99.90;;;;;;5181124;28;20197;-50
2023/12/16 04:19:00;;;;;;;47.33;19.27;;;6.70;99.90;;;;;;5182870;28;20281;-49
2023/12/16 04:21:32;;;;;;;55.47;20.43;;;6.70;99.90;;;;;;5184039;28;20183;-49
2023/12/16 04:24:03;;;;;;;44.77;18.80;;;6.70;99.90;;;;;;5181332;28;20195;-50
2023/12/16 04:26:37;;;;;;;52.97;20.00;;;6.70;99.90;;;;;;5186393;28;20439;-51
2023/12/16 04:29:07;;;;;;;44.73;18.80;;;6.70;99.90;;;;;;5184779;28;20967;-50
2023/12/16 04:31:38;;;;;;;48.33;20.20;;;6.80;99.90;;;;;;5183356;28;20439;-50
2023/12/16 04:34:09;;;;;;;42.40;17.80;;;6.70;99.90;;;;;;5182026;28;20283;-51
2023/12/16 04:36:40;;;;;;;41.77;19.27;;;6.70;99.90;;;;;;5183351;28;21050;-49
2023/12/16 04:39:10;;;;;;;42.70;17.90;;;6.70;99.90;;;;;;5183013;28;20235;-51
2023/12/16 04:41:41;;;;;;;36.13;17.67;;;6.70;99.90;;;;;;5184518;28;20683;-50
2023/12/16 04:44:12;;;;;;;43.30;18.80;;;6.80;99.90;;;;;;5185489;28;20184;-50
2023/12/16 04:46:42;;;;;;;52.53;16.60;;;6.70;99.90;;;;;;5175848;28;20533;-53
2023/12/16 04:49:13;;;;;;;44.93;18.10;;;6.70;99.90;;;;;;5182505;28;20283;-50
2023/12/16 04:51:44;;;;;;;37.33;17.70;;;6.70;99.90;;;;;;5182262;28;20203;-49
2023/12/16 04:54:14;;;;;;;47.50;19.20;;;6.70;99.90;;;;;;5184243;28;20204;-50
2023/12/16 04:56:45;;;;;;;35.20;15.70;;;6.70;99.90;;;;;;5182463;28;20275;-52
2023/12/16 04:59:15;;;;;;;45.30;18.70;;;6.80;99.90;;;;;;5182595;28;20192;-49
2023/12/16 05:01:46;;;;;;;41.83;17.87;;;6.70;99.90;;;;;;5180944;28;20330;-48
2023/12/16 05:04:16;;;;;;;49.20;18.90;;;6.70;99.90;;;;;;5182490;28;20197;-51
2023/12/16 05:06:47;;;;;;;48.53;17.83;;;6.70;99.90;;;;;;5182567;28;20211;-50
2023/12/16 05:09:18;;;;;;;39.77;17.47;;;6.80;99.90;;;;;;5183999;28;20354;-51
2023/12/16 05:11:48;;;;;;;45.13;17.57;;;6.80;99.90;;;;;;5183565;28;20604;-48
2023/12/16 05:14:19;;;;;;;37.37;17.27;;;6.70;99.90;;;;;;5195633;28;20547;-50
2023/12/16 05:16:50;;;;;;;45.47;18.00;;;6.70;99.90;;;;;;5183829;28;20187;-51
2023/12/16 05:19:20;;;;;;;46.03;18.10;;;6.80;99.90;;;;;;5175723;28;20259;-48
2023/12/16 05:21:51;;;;;;;37.70;17.80;;;6.80;99.90;;;;;;5181406;28;20189;-51
2023/12/16 05:24:21;;;;;;;32.43;17.80;;;6.70;99.90;;;;;;5184704;28;20272;-51
2023/12/16 05:26:52;;;;;;;40.27;17.90;;;6.70;99.90;;;;;;5182877;28;20188;-50
2023/12/16 05:29:23;;;;;;;49.07;17.83;;;6.70;99.90;;;;;;5181825;28;20208;-51
2023/12/16 05:31:53;;;;;;;47.27;18.00;;;6.60;99.90;;;;;;5164944;28;20188;-49
2023/12/16 05:34:24;;;;;;;39.90;16.77;;;6.60;99.90;;;;;;5174897;28;20211;-48
2023/12/16 05:36:54;;;;;;;49.63;17.77;;;6.60;99.90;;;;;;5179504;28;20184;-49
2023/12/16 05:39:26;;;;;;;41.67;16.17;;;6.60;99.90;;;;;;5184546;28;20261;-48
2023/12/16 05:41:57;;;;;;;34.70;15.73;;;6.40;99.90;;;;;;5180332;28;20203;-47
2023/12/16 05:44:27;;;;;;;44.93;15.20;;;6.40;99.90;;;;;;5182463;28;20439;-49
2023/12/16 05:46:58;;;;;;;31.30;16.00;;;6.30;99.90;;;;;;5182720;28;20200;-48
2023/12/16 05:49:29;;;;;;;36.60;14.90;;;6.30;99.90;;;;;;5177396;28;20211;-48
2023/12/16 05:51:59;;;;;;;38.70;17.20;;;6.20;99.90;;;;;;5180863;28;20588;-50
2023/12/16 05:54:30;;;;;;;44.83;16.87;;;6.20;99.90;;;;;;5184461;28;20534;-50
2023/12/16 05:57:00;;;;;;;43.00;15.67;;;6.20;99.90;;;;;;5179461;28;20169;-48
2023/12/16 05:59:31;;;;;;;44.07;14.17;;;6.20;99.90;;;;;;5179912;28;20242;-50
2023/12/16 06:02:02;;;;;;;38.03;15.37;;;6.20;99.90;;;;;;5185222;28;20187;-51
2023/12/16 06:04:32;;;;;;;38.97;16.00;;;6.30;99.90;;;;;;5183094;28;20192;-49
2023/12/16 06:07:03;;;;;;;40.27;14.97;;;6.20;99.90;;;;;;5180929;28;20219;-50
2023/12/16 06:09:34;;;;;;;47.07;15.03;;;6.20;99.90;;;;;;5182357;28;20200;-52
2023/12/16 06:12:05;;;;;;;40.33;15.27;;;6.30;99.90;;;;;;5183991;28;20253;-51
2023/12/16 06:14:35;;;;;;;37.83;14.57;;;6.40;99.90;;;;;;5180791;28;20231;-49
2023/12/16 06:17:06;;;;;;;35.80;14.70;;;6.50;99.90;;;;;;5181281;28;20463;-51
2023/12/16 06:19:37;;;;;;;38.27;14.00;;;6.50;99.90;;;;;;5180998;28;20637;-50
2023/12/16 06:22:08;;;;;;;27.23;13.90;;;6.60;99.90;;;;;;5179786;28;20456;-49
2023/12/16 06:24:38;;;;;;;24.63;13.00;;;6.60;99.90;;;;;;5186721;28;20195;-50
2023/12/16 06:27:09;;;;;;;31.47;14.40;;;6.60;99.90;;;;;;5183224;28;20561;-50
2023/12/16 06:29:40;;;;;;;28.03;13.43;;;6.60;99.90;;;;;;5179081;28;20189;-51
2023/12/16 06:32:11;;;;;;;34.23;13.03;;;6.60;99.90;;;;;;5182720;28;20188;-49
2023/12/16 06:34:41;;;;;;;34.67;12.50;;;6.60;99.90;;;;;;5178289;28;20306;-50
2023/12/16 06:37:12;;;;;;;19.80;11.43;;;6.60;99.90;;;;;;5177944;28;20533;-50
2023/12/16 06:39:43;;;;;;;26.10;11.53;;;6.60;99.90;;;;;;5161817;28;20184;-50
2023/12/16 06:42:13;;;;;;;44.27;13.10;;;6.70;99.90;;;;;;5167607;28;20180;-50
2023/12/16 06:44:44;;;;;;;32.37;14.00;;;6.70;99.90;;;;;;5182756;28;20267;-50
2023/12/16 06:47:14;;;;;;;35.37;13.67;;;6.70;99.90;;;;;;5181280;28;20547;-50
2023/12/16 06:49:45;;;;;;;31.80;12.83;;;6.70;99.90;;;;;;5182335;28;20536;-50
2023/12/16 06:52:16;;;;;;;33.00;13.13;;;6.70;99.90;;;;;;5170567;28;20227;-50
2023/12/16 06:54:46;;;;;;;34.80;14.10;;;6.70;99.90;;;;;;5182188;28;21573;-50
2023/12/16 06:57:17;;;;;;;35.67;11.87;;;6.70;99.90;;;;;;5182167;28;20216;-48
2023/12/16 06:59:47;;;;;;;31.13;12.50;;;6.70;99.90;;;;;;5180832;28;20212;-50
2023/12/16 07:02:20;;;;;;;32.43;11.87;;;6.70;99.90;;;;;;5185430;28;20184;-50
2023/12/16 07:04:50;;;;;;;30.40;12.37;;;6.70;99.90;;;;;;5185164;28;20223;-51
2023/12/16 07:07:21;;;;;;;25.97;11.57;;;6.70;99.90;;;;;;5182634;28;20926;-49
2023/12/16 07:09:51;;;;;;;41.33;12.50;;;6.70;99.90;;;;;;5182943;28;20286;-50
2023/12/16 07:12:22;;;;;;;20.47;11.20;;;6.70;99.90;;;;;;5183001;28;20200;-50
2023/12/16 07:14:53;;;;;;;21.30;10.03;;;6.80;99.90;;;;;;5178100;28;20684;-48
2023/12/16 07:17:24;;;;;;;23.07;10.70;;;6.80;99.90;;;;;;5185402;28;20226;-50
2023/12/16 07:19:55;;;;;;;23.40;10.33;;;6.80;99.90;;;;;;5179629;28;20620;-49
2023/12/16 07:22:27;;;;;;;28.63;11.50;;;6.80;99.90;;;;;;5179566;28;20486;-49
2023/12/16 07:24:58;;;;;;;28.73;9.60;;;6.90;99.90;;;;;;5180698;28;20724;-48
2023/12/16 07:27:28;;;;;;;34.27;9.87;;;7.00;99.90;;;;;;5178733;28;20491;-50
2023/12/16 07:29:59;;;;;;;31.83;9.80;;;6.90;99.90;;;;;;5176064;28;20279;-49
2023/12/16 07:32:30;;;;;;;23.00;9.60;;;6.80;99.90;;;;;;5179279;28;20208;-50
2023/12/16 07:35:02;;;;;;;19.10;10.20;;;6.90;99.90;;;;;;5182323;28;20596;-51
2023/12/16 07:37:33;;;;;;;30.43;8.93;;;7.00;99.90;;;;;;5181282;28;20250;-50
2023/12/16 07:40:04;;;;;;;31.87;9.27;;;6.90;99.90;;;;;;5182105;28;20439;-48
2023/12/16 07:42:36;;;;;;;24.20;9.67;;;6.90;99.90;;;;;;5184989;28;20225;-50
2023/12/16 07:45:08;;;;;;;20.80;9.10;;;7.00;99.90;;;;;;5184312;28;20439;-50
2023/12/16 07:47:39;;;;;;;25.37;8.90;;;7.00;99.90;;;;;;5182254;28;20839;-52
2023/12/16 07:50:10;;;;;;;24.03;8.30;;;7.10;99.90;;;;;;5168028;28;20453;-49
2023/12/16 07:52:41;;;;;;;27.33;9.43;;;7.00;99.90;;;;;;5180320;28;20227;-50
2023/12/16 07:55:13;;;;;;;24.57;9.37;;;7.10;99.90;;;;;;5175116;28;21160;-50
2023/12/16 07:57:43;;;;;;;17.30;8.67;;;7.20;99.90;;;;;;5178667;28;20680;-50
2023/12/16 08:00:14;;;;;;;24.20;9.90;;;7.10;99.90;;;;;;5144544;28;20490;-50
2023/12/16 08:02:45;;;;;;;27.37;8.23;;;7.10;99.90;;;;;;5177470;28;20239;-50
2023/12/16 08:05:16;;;;;;;23.30;7.83;;;7.20;99.90;;;;;;5179312;28;20931;-50
2023/12/16 08:07:46;;;;;;;37.87;8.63;;;7.20;99.90;;;;;;5174980;28;20204;-50
2023/12/16 08:10:17;;;;;;;18.13;8.47;;;7.20;99.90;;;;;;5183425;28;20443;-51
2023/12/16 08:12:48;;;;;;;25.63;9.40;;;7.20;99.90;;;;;;5164078;28;20224;-50
2023/12/16 08:15:18;;;;;;;30.07;8.37;;;7.20;99.90;;;;;;5167594;28;20573;-51
2023/12/16 08:17:49;;;;;;;18.50;8.20;;;7.20;99.90;;;;;;5185285;28;20205;-50
2023/12/16 08:20:19;;;;;;;13.87;7.23;;;7.30;99.90;;;;;;5181488;28;20180;-50
2023/12/16 08:22:50;;;;;;;19.10;7.77;;;7.30;99.90;;;;;;5181672;28;20888;-52
2023/12/16 08:25:21;;;;;;;19.70;7.83;;;7.20;99.90;;;;;;5200232;28;20629;-50
2023/12/16 08:27:51;;;;;;;12.90;6.47;;;7.30;99.90;;;;;;5181182;28;20294;-49
2023/12/16 08:30:22;;;;;;;30.27;8.27;;;7.30;99.90;;;;;;5181580;28;20263;-49
2023/12/16 08:32:53;;;;;;;19.00;7.80;;;7.30;99.90;;;;;;5161229;28;20211;-53
2023/12/16 08:35:23;;;;;;;14.93;6.73;;;7.40;99.90;;;;;;5176001;28;21042;-51
2023/12/16 08:37:55;;;;;;;14.40;6.50;;;7.40;99.90;;;;;;5183660;28;20962;-51
2023/12/16 08:40:26;;;;;;;16.20;8.10;;;7.40;99.90;;;;;;5196303;28;20191;-51
2023/12/16 08:42:57;;;;;;;22.57;7.40;;;7.50;99.90;;;;;;5183507;28;20421;-48
2023/12/16 08:45:28;;;;;;;32.47;7.40;;;7.50;99.90;;;;;;5183017;28;20489;-48
2023/12/16 08:47:58;;;;;;;14.87;6.80;;;7.50;99.90;;;;;;5179025;28;20581;-49
2023/12/16 08:50:29;;;;;;;24.30;6.90;;;7.60;99.90;;;;;;5182993;28;20195;-49
2023/12/16 08:52:59;;;;;;;24.83;7.23;;;7.60;99.90;;;;;;5180298;28;20188;-50
2023/12/16 08:55:30;;;;;;;16.67;6.67;;;7.60;99.90;;;;;;5182677;28;20235;-51
2023/12/16 08:58:01;;;;;;;14.03;6.77;;;7.70;99.90;;;;;;5181670;28;20573;-49
2023/12/16 09:00:31;;;;;;;9.30;6.00;;;7.70;99.90;;;;;;5179983;28;20275;-50
2023/12/16 09:03:02;;;;;;;19.13;6.47;;;7.80;99.90;;;;;;5182971;28;20202;-49
2023/12/16 09:05:34;;;;;;;14.80;6.87;;;7.80;99.90;;;;;;5182773;28;20203;-50
2023/12/16 09:08:04;;;;;;;12.87;6.47;;;7.90;99.90;;;;;;5182422;28;20469;-52
2023/12/16 09:10:35;;;;;;;12.83;5.43;;;7.90;99.90;;;;;;5165274;28;20968;-50
2023/12/16 09:13:06;;;;;;;14.43;5.97;;;8.10;99.90;;;;;;5181837;28;20683;-50
2023/12/16 09:15:36;;;;;;;17.40;6.30;;;8.10;99.90;;;;;;5181336;28;20262;-52
2023/12/16 09:18:07;;;;;;;22.83;5.37;;;8.10;99.90;;;;;;5182026;28;20204;-49
2023/12/16 09:20:38;;;;;;;11.20;5.20;;;8.10;99.90;;;;;;5179654;28;20603;-50
2023/12/16 09:23:09;;;;;;;13.77;4.90;;;8.20;99.90;;;;;;5179921;28;20206;-48
2023/12/16 09:25:40;;;;;;;14.93;5.10;;;8.30;99.90;;;;;;5179327;28;20258;-50
2023/12/16 09:28:11;;;;;;;11.73;4.40;;;8.40;99.90;;;;;;5187001;28;20502;-49
2023/12/16 09:30:41;;;;;;;3.80;3.40;;;8.50;99.90;;;;;;5183849;28;20585;-48
2023/12/16 09:33:12;;;;;;;10.80;4.07;;;8.50;99.90;;;;;;5179893;28;20311;-49
2023/12/16 09:35:42;;;;;;;10.93;4.40;;;8.50;99.90;;;;;;5182277;28;20230;-51
2023/12/16 09:38:13;;;;;;;6.93;3.47;;;8.50;99.90;;;;;;5182098;28;20196;-50
2023/12/16 09:40:44;;;;;;;12.50;4.13;;;8.60;99.90;;;;;;5182922;28;22179;-49
2023/12/16 09:43:16;;;;;;;18.00;3.80;;;8.70;99.90;;;;;;5174527;28;20184;-50
2023/12/16 09:45:47;;;;;;;10.73;3.73;;;8.70;99.90;;;;;;5170914;28;20443;-52
2023/12/16 09:48:19;;;;;;;14.30;4.37;;;8.80;99.90;;;;;;5162006;28;20466;-50
2023/12/16 09:50:50;;;;;;;15.03;3.73;;;8.90;99.90;;;;;;5167167;28;20234;-51
2023/12/16 09:53:21;;;;;;;7.63;3.40;;;8.90;99.90;;;;;;5189448;28;21161;-50
2023/12/16 09:55:52;;;;;;;12.37;3.47;;;8.90;99.90;;;;;;5179975;28;20294;-52
2023/12/16 09:58:24;;;;;;;10.20;3.33;;;8.90;99.90;;;;;;5163599;28;20480;-49
2023/12/16 10:00:56;;;;;;;13.17;3.80;;;8.90;99.90;;;;;;5159670;28;20443;-48
2023/12/16 10:03:30;;;;;;;6.07;3.23;;;9.00;99.90;;;;;;5168524;28;20652;-50
2023/12/16 10:06:01;;;;;;;17.03;3.43;;;9.10;99.90;;;;;;5170288;28;20458;-50
2023/12/16 10:08:32;;;;;;;4.73;3.53;;;9.10;99.90;;;;;;5180217;28;20580;-46
2023/12/16 10:11:04;;;;;;;14.63;4.33;;;9.10;99.90;;;;;;5183235;28;20447;-46
2023/12/16 10:13:54;;;;;;;9.07;3.87;;;9.10;99.90;;;;;;5165159;28;20421;-45
2023/12/16 10:16:25;;;;;;;10.17;3.07;;;9.10;99.90;;;;;;5186288;28;20443;-46
2023/12/16 10:18:57;;;;;;;13.57;3.47;;;9.10;99.90;;;;;;5184709;28;20450;-53
2023/12/16 10:21:33;;;;;;;11.00;4.03;;;9.00;99.90;;;;;;5183059;28;20871;-49
2023/12/16 10:24:04;;;;;;;13.07;3.93;;;8.90;99.90;;;;;;5179985;28;20799;-50
2023/12/16 10:26:41;;;;;;;6.10;3.30;;;8.90;99.90;;;;;;5183194;28;20458;-51
2023/12/16 10:29:12;;;;;;;16.27;3.57;;;8.80;99.90;;;;;;5179575;28;20780;-46
2023/12/16 10:31:43;;;;;;;15.70;4.23;;;8.70;99.90;;;;;;5170652;28;20450;-49
2023/12/16 10:34:16;;;;;;;25.97;4.70;;;8.60;99.90;;;;;;5178730;28;20300;-48
2023/12/16 10:36:46;;;;;;;12.07;2.73;;;8.50;99.90;;;;;;5183110;28;20180;-48
2023/12/16 10:39:17;;;;;;;13.40;3.63;;;8.50;99.90;;;;;;5180124;28;20462;-48
2023/12/16 10:41:47;;;;;;;7.70;3.77;;;8.40;99.90;;;;;;5183563;28;20246;-46
2023/12/16 10:44:18;;;;;;;9.30;3.40;;;8.50;99.90;;;;;;5181606;28;20240;-49
2023/12/16 10:46:52;;;;;;;6.73;3.07;;;8.50;99.90;;;;;;5181970;28;20210;-46
2023/12/16 10:49:30;;;;;;;9.20;3.90;;;8.50;99.90;;;;;;5187147;28;20736;-46
2023/12/16 10:52:11;;;;;;;8.03;3.10;;;8.60;99.90;;;;;;5185440;28;20445;-49
2023/12/16 10:54:47;;;;;;;11.63;4.33;;;8.50;99.90;;;;;;5179748;28;20477;-49
2023/12/16 10:57:36;;;;;;;13.07;4.10;;;8.60;99.90;;;;;;5184680;28;20471;-47
2023/12/16 11:00:11;;;;;;;11.50;3.90;;;8.70;99.90;;;;;;5180688;28;20581;-49
2023/12/16 11:03:00;;;;;;;8.87;3.60;;;8.70;99.90;;;;;;5184203;28;20496;-46
2023/12/16 11:05:34;;;;;;;5.40;2.57;;;8.80;99.90;;;;;;5183050;28;20438;-47
2023/12/16 11:08:05;;;;;;;9.60;4.00;;;8.90;99.90;;;;;;5182294;28;20470;-47
2023/12/16 11:10:36;;;;;;;10.60;3.70;;;8.80;99.90;;;;;;5185118;28;20447;-46
2023/12/16 11:13:07;;;;;;;9.40;3.30;;;8.90;99.90;;;;;;5183592;28;21014;-45
2023/12/16 11:15:38;;;;;;;11.53;3.87;;;8.90;99.90;;;;;;5182923;28;20242;-47
2023/12/16 11:18:19;;;;;;;10.50;3.87;;;8.90;99.90;;;;;;5182884;28;20490;-47
2023/12/16 11:20:54;;;;;;;19.67;4.00;;;8.90;99.90;;;;;;5181908;28;20235;-46
2023/12/16 11:23:24;;;;;;;18.70;3.87;;;8.90;99.90;;;;;;5183533;28;20431;-47
2023/12/16 11:25:55;;;;;;;9.80;3.60;;;8.90;99.90;;;;;;5181561;28;20450;-47
2023/12/16 11:28:27;;;;;;;4.30;2.70;;;8.90;99.90;;;;;;5184574;28;20299;-47
2023/12/16 11:30:58;;;;;;;10.23;3.90;;;9.00;99.90;;;;;;5177067;28;20177;-47
2023/12/16 11:33:44;;;;;;;9.50;3.03;;;9.00;99.90;;;;;;5184877;28;20447;-47
2023/12/16 11:36:15;;;;;;;9.57;3.70;;;9.00;99.90;;;;;;5182341;28;20572;-47
2023/12/16 11:38:48;;;;;;;17.70;3.87;;;9.10;99.90;;;;;;5184208;28;20474;-47
2023/12/16 11:41:37;;;;;;;20.53;4.50;;;8.90;99.90;;;;;;5185849;28;20180;-48
2023/12/16 11:44:08;;;;;;;14.53;3.70;;;9.00;99.90;;;;;;5187043;28;20444;-48
2023/12/16 11:46:43;;;;;;;20.90;4.10;;;8.90;99.90;;;;;;5185999;28;20450;-48
2023/12/16 11:49:15;;;;;;;10.03;4.03;;;9.00;99.90;;;;;;5184713;28;20192;-49
2023/12/16 11:51:46;;;;;;;12.20;4.87;;;8.90;99.90;;;;;;5186668;28;20439;-46
2023/12/16 11:54:16;;;;;;;10.30;3.83;;;9.00;99.90;;;;;;5171006;28;20449;-48
2023/12/16 11:56:49;;;;;;;10.30;3.80;;;9.00;99.90;;;;;;5182693;28;20188;-46
2023/12/16 11:59:19;;;;;;;9.97;4.37;;;9.00;99.90;;;;;;5186263;28;20196;-47
2023/12/16 12:01:50;;;;;;;8.50;3.43;;;8.90;99.90;;;;;;5187415;28;20419;-48
2023/12/16 12:04:21;;;;;;;10.30;4.27;;;9.00;99.90;;;;;;5187184;28;20187;-47
2023/12/16 12:06:51;;;;;;;7.73;3.50;;;9.00;99.90;;;;;;5170754;28;20267;-49
2023/12/16 12:09:22;;;;;;;15.30;3.50;;;8.90;99.90;;;;;;5188029;28;20246;-49
2023/12/16 12:11:53;;;;;;;14.07;4.50;;;9.00;99.90;;;;;;5186158;28;20215;-48
2023/12/16 12:14:27;;;;;;;13.30;4.17;;;9.10;99.90;;;;;;5185761;28;20919;-48
2023/12/16 12:16:59;;;;;;;14.33;4.30;;;9.10;99.90;;;;;;5183870;28;20271;-48
2023/12/16 12:19:29;;;;;;;11.60;4.17;;;9.20;99.90;;;;;;5187295;28;20429;-48
2023/12/16 12:22:01;;;;;;;13.23;3.83;;;9.20;99.90;;;;;;5186571;28;20539;-46
2023/12/16 12:24:31;;;;;;;23.47;4.23;;;9.20;99.90;;;;;;5202246;28;20467;-46
2023/12/16 12:27:02;;;;;;;6.93;3.53;;;9.20;99.90;;;;;;5186820;28;20447;-49
2023/12/16 12:29:56;;;;;;;17.60;4.40;;;9.10;99.90;;;;;;5183871;28;20188;-47
2023/12/16 12:32:29;;;;;;;13.40;3.67;;;9.00;99.90;;;;;;5189211;28;20652;-45
2023/12/16 12:35:07;;;;;;;15.23;4.17;;;9.00;99.90;;;;;;5198028;28;20455;-46
2023/12/16 12:37:45;;;;;;;24.53;4.90;;;9.00;99.90;;;;;;5187411;28;20470;-47
2023/12/16 12:40:17;;;;;;;17.60;4.67;;;8.90;99.90;;;;;;5186012;28;20447;-48
2023/12/16 12:42:50;;;;;;;21.97;4.97;;;8.90;99.90;;;;;;5185946;28;20447;-47
2023/12/16 12:45:32;;;;;;;25.03;3.50;;;8.90;99.90;;;;;;5185813;28;20538;-47
2023/12/16 12:48:10;;;;;;;21.30;4.40;;;8.90;99.90;;;;;;5184554;28;20459;-47
2023/12/16 12:50:42;;;;;;;11.60;2.90;;;9.00;99.90;;;;;;5185227;28;20466;-47
2023/12/16 12:53:20;;;;;;;11.03;3.27;;;9.10;99.90;;;;;;5183638;28;20434;-47
2023/12/16 12:55:53;;;;;;;10.47;4.17;;;9.10;99.90;;;;;;5187430;28;20463;-46
2023/12/16 12:58:27;;;;;;;12.23;4.23;;;9.10;99.90;;;;;;5182322;28;20502;-47
2023/12/16 13:01:02;;;;;;;14.57;4.60;;;9.00;99.90;;;;;;5182197;28;20439;-47
2023/12/16 13:03:34;;;;;;;10.83;3.53;;;8.90;99.90;;;;;;5185027;28;20800;-46
2023/12/16 13:06:06;;;;;;;18.27;3.27;;;8.90;99.90;;;;;;5185601;28;20419;-47